sensor_id;sensor_type;location;lat;lon;timestamp;P1;durP1;ratioP1;P2;durP2;ratioP2
22935;SDS011;11633;42.716;23.312;2023-06-26T00:00:06;18.70;;;15.25;;
22935;SDS011;11633;42.716;23.312;2023-06-26T00:02:32;18.25;;;15.18;;
22935;SDS011;11633;42.716;23.312;2023-06-26T00:04:58;17.95;;;14.77;;
22935;SDS011;11633;42.716;23.312;2023-06-26T00:07:23;18.05;;;15.05;;
22935;SDS011;11633;42.716;23.312;2023-06-26T00:09:48;17.90;;;14.88;;
22935;SDS011;11633;42.716;23.312;2023-06-26T00:12:13;19.30;;;14.77;;
22935;SDS011;11633;42.716;23.312;2023-06-26T00:14:39;19.58;;;15.70;;
22935;SDS011;11633;42.716;23.312;2023-06-26T00:17:04;17.90;;;15.38;;
22935;SDS011;11633;42.716;23.312;2023-06-26T00:19:31;17.00;;;13.82;;
22935;SDS011;11633;42.716;23.312;2023-06-26T00:21:56;17.67;;;14.63;;
22935;SDS011;11633;42.716;23.312;2023-06-26T00:24:21;15.70;;;13.20;;
22935;SDS011;11633;42.716;23.312;2023-06-26T00:26:47;16.67;;;14.30;;
22935;SDS011;11633;42.716;23.312;2023-06-26T00:29:12;16.00;;;14.30;;
22935;SDS011;11633;42.716;23.312;2023-06-26T00:31:38;16.63;;;14.18;;
22935;SDS011;11633;42.716;23.312;2023-06-26T00:34:05;15.93;;;13.48;;
22935;SDS011;11633;42.716;23.312;2023-06-26T00:36:30;14.63;;;13.10;;
22935;SDS011;11633;42.716;23.312;2023-06-26T00:38:55;15.35;;;13.07;;
22935;SDS011;11633;42.716;23.312;2023-06-26T00:41:20;15.02;;;12.50;;
22935;SDS011;11633;42.716;23.312;2023-06-26T00:43:46;15.27;;;12.65;;
22935;SDS011;11633;42.716;23.312;2023-06-26T00:46:14;15.57;;;13.98;;
22935;SDS011;11633;42.716;23.312;2023-06-26T00:48:41;14.20;;;12.70;;
22935;SDS011;11633;42.716;23.312;2023-06-26T00:51:06;14.38;;;12.05;;
22935;SDS011;11633;42.716;23.312;2023-06-26T00:53:32;16.95;;;13.25;;
22935;SDS011;11633;42.716;23.312;2023-06-26T00:55:57;13.80;;;12.40;;
22935;SDS011;11633;42.716;23.312;2023-06-26T00:58:23;15.63;;;12.38;;
22935;SDS011;11633;42.716;23.312;2023-06-26T01:00:49;14.40;;;11.38;;
22935;SDS011;11633;42.716;23.312;2023-06-26T01:03:15;12.23;;;10.93;;
22935;SDS011;11633;42.716;23.312;2023-06-26T01:05:40;15.35;;;11.45;;
22935;SDS011;11633;42.716;23.312;2023-06-26T01:08:06;12.15;;;10.82;;
22935;SDS011;11633;42.716;23.312;2023-06-26T01:10:32;12.73;;;11.38;;
22935;SDS011;11633;42.716;23.312;2023-06-26T01:12:57;13.00;;;11.43;;
22935;SDS011;11633;42.716;23.312;2023-06-26T01:15:23;16.08;;;12.32;;
22935;SDS011;11633;42.716;23.312;2023-06-26T01:17:48;15.15;;;13.00;;
22935;SDS011;11633;42.716;23.312;2023-06-26T01:20:14;13.15;;;11.85;;
22935;SDS011;11633;42.716;23.312;2023-06-26T01:27:50;13.32;;;10.77;;
22935;SDS011;11633;42.716;23.312;2023-06-26T01:30:17;13.00;;;11.38;;
22935;SDS011;11633;42.716;23.312;2023-06-26T01:32:44;14.50;;;11.75;;
22935;SDS011;11633;42.716;23.312;2023-06-26T01:35:09;13.90;;;11.88;;
22935;SDS011;11633;42.716;23.312;2023-06-26T01:37:35;13.10;;;11.63;;
22935;SDS011;11633;42.716;23.312;2023-06-26T01:40:01;13.40;;;12.10;;
22935;SDS011;11633;42.716;23.312;2023-06-26T01:42:26;14.23;;;12.73;;
22935;SDS011;11633;42.716;23.312;2023-06-26T01:44:52;13.20;;;11.85;;
22935;SDS011;11633;42.716;23.312;2023-06-26T01:47:22;13.60;;;11.98;;
22935;SDS011;11633;42.716;23.312;2023-06-26T01:49:54;14.02;;;12.40;;
22935;SDS011;11633;42.716;23.312;2023-06-26T01:52:23;13.30;;;11.98;;
22935;SDS011;11633;42.716;23.312;2023-06-26T01:57:31;12.48;;;11.27;;
22935;SDS011;11633;42.716;23.312;2023-06-26T01:59:56;14.35;;;11.98;;
22935;SDS011;11633;42.716;23.312;2023-06-26T02:02:23;14.23;;;11.73;;
22935;SDS011;11633;42.716;23.312;2023-06-26T02:04:48;12.98;;;11.68;;
22935;SDS011;11633;42.716;23.312;2023-06-26T02:07:14;15.10;;;12.18;;
22935;SDS011;11633;42.716;23.312;2023-06-26T02:09:39;13.00;;;11.75;;
22935;SDS011;11633;42.716;23.312;2023-06-26T02:12:05;13.75;;;12.40;;
22935;SDS011;11633;42.716;23.312;2023-06-26T02:14:33;13.35;;;12.00;;
22935;SDS011;11633;42.716;23.312;2023-06-26T02:16:58;14.25;;;12.75;;
22935;SDS011;11633;42.716;23.312;2023-06-26T02:19:25;15.18;;;13.50;;
22935;SDS011;11633;42.716;23.312;2023-06-26T02:21:50;13.60;;;11.90;;
22935;SDS011;11633;42.716;23.312;2023-06-26T02:24:16;16.83;;;13.65;;
22935;SDS011;11633;42.716;23.312;2023-06-26T02:26:41;14.60;;;12.75;;
22935;SDS011;11633;42.716;23.312;2023-06-26T02:29:06;15.13;;;13.63;;
22935;SDS011;11633;42.716;23.312;2023-06-26T02:31:31;14.68;;;13.23;;
22935;SDS011;11633;42.716;23.312;2023-06-26T02:33:57;15.40;;;13.82;;
22935;SDS011;11633;42.716;23.312;2023-06-26T02:36:22;16.02;;;14.32;;
22935;SDS011;11633;42.716;23.312;2023-06-26T02:38:47;16.55;;;14.88;;
22935;SDS011;11633;42.716;23.312;2023-06-26T02:41:13;16.27;;;14.50;;
22935;SDS011;11633;42.716;23.312;2023-06-26T02:43:38;17.55;;;15.07;;
22935;SDS011;11633;42.716;23.312;2023-06-26T02:46:03;16.13;;;14.52;;
22935;SDS011;11633;42.716;23.312;2023-06-26T02:48:29;16.73;;;15.02;;
22935;SDS011;11633;42.716;23.312;2023-06-26T02:50:54;19.08;;;16.20;;
22935;SDS011;11633;42.716;23.312;2023-06-26T02:53:19;19.10;;;16.13;;
22935;SDS011;11633;42.716;23.312;2023-06-26T02:55:44;17.77;;;15.88;;
22935;SDS011;11633;42.716;23.312;2023-06-26T02:58:12;24.52;;;18.27;;
22935;SDS011;11633;42.716;23.312;2023-06-26T03:00:37;20.58;;;17.38;;
22935;SDS011;11633;42.716;23.312;2023-06-26T03:03:06;18.65;;;16.75;;
22935;SDS011;11633;42.716;23.312;2023-06-26T03:05:31;19.25;;;17.33;;
22935;SDS011;11633;42.716;23.312;2023-06-26T03:07:56;22.13;;;17.75;;
22935;SDS011;11633;42.716;23.312;2023-06-26T03:10:21;21.02;;;17.33;;
22935;SDS011;11633;42.716;23.312;2023-06-26T03:12:47;19.55;;;17.52;;
22935;SDS011;11633;42.716;23.312;2023-06-26T03:15:12;19.52;;;17.63;;
22935;SDS011;11633;42.716;23.312;2023-06-26T03:17:37;20.38;;;17.90;;
22935;SDS011;11633;42.716;23.312;2023-06-26T03:20:03;21.02;;;17.48;;
22935;SDS011;11633;42.716;23.312;2023-06-26T03:22:31;20.30;;;18.20;;
22935;SDS011;11633;42.716;23.312;2023-06-26T03:24:57;19.75;;;17.75;;
22935;SDS011;11633;42.716;23.312;2023-06-26T03:27:22;20.25;;;18.13;;
22935;SDS011;11633;42.716;23.312;2023-06-26T03:29:47;20.30;;;18.15;;
22935;SDS011;11633;42.716;23.312;2023-06-26T03:32:12;21.88;;;18.88;;
22935;SDS011;11633;42.716;23.312;2023-06-26T03:34:38;20.60;;;17.80;;
22935;SDS011;11633;42.716;23.312;2023-06-26T03:37:03;22.23;;;18.27;;
22935;SDS011;11633;42.716;23.312;2023-06-26T03:39:28;19.75;;;17.73;;
22935;SDS011;11633;42.716;23.312;2023-06-26T03:41:54;20.05;;;17.95;;
22935;SDS011;11633;42.716;23.312;2023-06-26T03:44:20;19.40;;;17.40;;
22935;SDS011;11633;42.716;23.312;2023-06-26T03:46:45;20.83;;;18.70;;
22935;SDS011;11633;42.716;23.312;2023-06-26T03:49:10;20.63;;;18.20;;
22935;SDS011;11633;42.716;23.312;2023-06-26T03:51:35;20.90;;;18.80;;
22935;SDS011;11633;42.716;23.312;2023-06-26T03:54:01;19.45;;;17.65;;
22935;SDS011;11633;42.716;23.312;2023-06-26T03:56:26;21.63;;;18.40;;
22935;SDS011;11633;42.716;23.312;2023-06-26T03:58:51;19.65;;;17.13;;
22935;SDS011;11633;42.716;23.312;2023-06-26T04:01:17;19.52;;;17.48;;
22935;SDS011;11633;42.716;23.312;2023-06-26T04:03:42;17.98;;;16.15;;
22935;SDS011;11633;42.716;23.312;2023-06-26T04:06:07;16.33;;;14.63;;
22935;SDS011;11633;42.716;23.312;2023-06-26T04:08:32;17.58;;;15.68;;
22935;SDS011;11633;42.716;23.312;2023-06-26T04:10:58;16.08;;;14.52;;
22935;SDS011;11633;42.716;23.312;2023-06-26T04:13:23;14.77;;;13.45;;
22935;SDS011;11633;42.716;23.312;2023-06-26T04:15:49;15.85;;;13.63;;
22935;SDS011;11633;42.716;23.312;2023-06-26T04:18:14;15.07;;;13.57;;
22935;SDS011;11633;42.716;23.312;2023-06-26T04:20:39;16.08;;;14.45;;
22935;SDS011;11633;42.716;23.312;2023-06-26T04:23:06;15.52;;;14.02;;
22935;SDS011;11633;42.716;23.312;2023-06-26T04:25:31;16.48;;;14.88;;
22935;SDS011;11633;42.716;23.312;2023-06-26T04:27:56;15.32;;;13.82;;
22935;SDS011;11633;42.716;23.312;2023-06-26T04:30:21;14.48;;;13.00;;
22935;SDS011;11633;42.716;23.312;2023-06-26T04:32:47;14.20;;;12.80;;
22935;SDS011;11633;42.716;23.312;2023-06-26T04:35:12;13.18;;;11.95;;
22935;SDS011;11633;42.716;23.312;2023-06-26T04:37:37;14.07;;;12.80;;
22935;SDS011;11633;42.716;23.312;2023-06-26T04:40:04;14.63;;;13.13;;
22935;SDS011;11633;42.716;23.312;2023-06-26T04:42:30;13.55;;;12.15;;
22935;SDS011;11633;42.716;23.312;2023-06-26T04:44:55;13.13;;;11.93;;
22935;SDS011;11633;42.716;23.312;2023-06-26T04:47:20;13.27;;;12.07;;
22935;SDS011;11633;42.716;23.312;2023-06-26T04:49:48;13.25;;;11.90;;
22935;SDS011;11633;42.716;23.312;2023-06-26T04:52:13;13.52;;;12.32;;
22935;SDS011;11633;42.716;23.312;2023-06-26T04:54:39;12.98;;;11.73;;
22935;SDS011;11633;42.716;23.312;2023-06-26T04:57:04;12.65;;;11.20;;
22935;SDS011;11633;42.716;23.312;2023-06-26T04:59:30;13.27;;;11.95;;
22935;SDS011;11633;42.716;23.312;2023-06-26T05:01:58;14.55;;;13.05;;
22935;SDS011;11633;42.716;23.312;2023-06-26T05:04:24;14.70;;;13.38;;
22935;SDS011;11633;42.716;23.312;2023-06-26T05:06:49;14.45;;;13.07;;
22935;SDS011;11633;42.716;23.312;2023-06-26T05:09:15;14.30;;;12.73;;
22935;SDS011;11633;42.716;23.312;2023-06-26T05:11:40;15.07;;;13.63;;
22935;SDS011;11633;42.716;23.312;2023-06-26T05:14:10;15.27;;;13.68;;
22935;SDS011;11633;42.716;23.312;2023-06-26T05:16:38;15.00;;;13.40;;
22935;SDS011;11633;42.716;23.312;2023-06-26T05:19:03;14.98;;;13.43;;
22935;SDS011;11633;42.716;23.312;2023-06-26T05:21:29;14.43;;;13.00;;
22935;SDS011;11633;42.716;23.312;2023-06-26T05:23:55;14.30;;;12.95;;
22935;SDS011;11633;42.716;23.312;2023-06-26T05:26:21;14.85;;;13.07;;
22935;SDS011;11633;42.716;23.312;2023-06-26T05:28:46;14.15;;;12.75;;
22935;SDS011;11633;42.716;23.312;2023-06-26T05:31:13;13.75;;;12.45;;
22935;SDS011;11633;42.716;23.312;2023-06-26T05:33:39;13.65;;;12.20;;
22935;SDS011;11633;42.716;23.312;2023-06-26T05:36:07;13.40;;;12.20;;
22935;SDS011;11633;42.716;23.312;2023-06-26T05:38:33;14.43;;;12.93;;
22935;SDS011;11633;42.716;23.312;2023-06-26T05:40:58;14.40;;;13.07;;
22935;SDS011;11633;42.716;23.312;2023-06-26T05:43:24;13.82;;;12.52;;
22935;SDS011;11633;42.716;23.312;2023-06-26T05:45:49;16.42;;;14.73;;
22935;SDS011;11633;42.716;23.312;2023-06-26T05:48:14;14.88;;;12.98;;
22935;SDS011;11633;42.716;23.312;2023-06-26T05:50:40;16.23;;;13.63;;
22935;SDS011;11633;42.716;23.312;2023-06-26T05:53:07;13.90;;;12.45;;
22935;SDS011;11633;42.716;23.312;2023-06-26T05:55:32;13.93;;;12.50;;
22935;SDS011;11633;42.716;23.312;2023-06-26T05:57:58;12.80;;;11.60;;
22935;SDS011;11633;42.716;23.312;2023-06-26T06:00:24;11.52;;;10.32;;
22935;SDS011;11633;42.716;23.312;2023-06-26T06:02:51;11.93;;;10.82;;
22935;SDS011;11633;42.716;23.312;2023-06-26T06:05:19;11.30;;;10.20;;
22935;SDS011;11633;42.716;23.312;2023-06-26T06:07:44;11.48;;;10.40;;
22935;SDS011;11633;42.716;23.312;2023-06-26T06:10:09;11.70;;;10.50;;
22935;SDS011;11633;42.716;23.312;2023-06-26T06:12:35;11.50;;;10.38;;
22935;SDS011;11633;42.716;23.312;2023-06-26T06:15:00;12.35;;;11.07;;
22935;SDS011;11633;42.716;23.312;2023-06-26T06:17:25;12.83;;;11.63;;
22935;SDS011;11633;42.716;23.312;2023-06-26T06:19:50;13.02;;;11.10;;
22935;SDS011;11633;42.716;23.312;2023-06-26T06:22:16;11.48;;;10.45;;
22935;SDS011;11633;42.716;23.312;2023-06-26T06:24:42;10.73;;;9.63;;
22935;SDS011;11633;42.716;23.312;2023-06-26T06:27:07;11.23;;;10.23;;
22935;SDS011;11633;42.716;23.312;2023-06-26T06:29:33;10.65;;;9.65;;
22935;SDS011;11633;42.716;23.312;2023-06-26T06:31:58;9.55;;;8.57;;
22935;SDS011;11633;42.716;23.312;2023-06-26T06:34:23;9.57;;;8.68;;
22935;SDS011;11633;42.716;23.312;2023-06-26T06:36:48;11.32;;;9.50;;
22935;SDS011;11633;42.716;23.312;2023-06-26T06:39:15;10.00;;;8.75;;
22935;SDS011;11633;42.716;23.312;2023-06-26T06:41:40;10.25;;;9.35;;
22935;SDS011;11633;42.716;23.312;2023-06-26T06:44:05;9.67;;;8.67;;
22935;SDS011;11633;42.716;23.312;2023-06-26T06:46:30;11.98;;;8.60;;
22935;SDS011;11633;42.716;23.312;2023-06-26T06:48:56;9.40;;;8.57;;
22935;SDS011;11633;42.716;23.312;2023-06-26T06:51:21;10.35;;;8.13;;
22935;SDS011;11633;42.716;23.312;2023-06-26T06:53:46;8.13;;;7.40;;
22935;SDS011;11633;42.716;23.312;2023-06-26T06:56:12;8.43;;;7.43;;
22935;SDS011;11633;42.716;23.312;2023-06-26T06:58:37;8.85;;;8.05;;
22935;SDS011;11633;42.716;23.312;2023-06-26T07:01:02;8.40;;;7.55;;
22935;SDS011;11633;42.716;23.312;2023-06-26T07:03:29;9.05;;;8.05;;
22935;SDS011;11633;42.716;23.312;2023-06-26T07:05:55;9.00;;;8.10;;
22935;SDS011;11633;42.716;23.312;2023-06-26T07:08:20;10.38;;;8.38;;
22935;SDS011;11633;42.716;23.312;2023-06-26T07:10:45;8.35;;;7.57;;
22935;SDS011;11633;42.716;23.312;2023-06-26T07:13:11;8.47;;;7.70;;
22935;SDS011;11633;42.716;23.312;2023-06-26T07:15:36;8.93;;;8.13;;
22935;SDS011;11633;42.716;23.312;2023-06-26T07:18:01;7.67;;;6.93;;
22935;SDS011;11633;42.716;23.312;2023-06-26T07:20:26;6.85;;;6.22;;
22935;SDS011;11633;42.716;23.312;2023-06-26T07:22:52;6.63;;;6.10;;
22935;SDS011;11633;42.716;23.312;2023-06-26T07:25:17;6.75;;;6.18;;
22935;SDS011;11633;42.716;23.312;2023-06-26T07:27:43;6.73;;;6.03;;
22935;SDS011;11633;42.716;23.312;2023-06-26T07:30:09;6.20;;;5.60;;
22935;SDS011;11633;42.716;23.312;2023-06-26T07:32:35;6.50;;;5.90;;
22935;SDS011;11633;42.716;23.312;2023-06-26T07:35:00;6.60;;;5.88;;
22935;SDS011;11633;42.716;23.312;2023-06-26T07:37:25;6.55;;;5.95;;
22935;SDS011;11633;42.716;23.312;2023-06-26T07:39:50;7.80;;;7.00;;
22935;SDS011;11633;42.716;23.312;2023-06-26T07:42:16;6.07;;;5.53;;
22935;SDS011;11633;42.716;23.312;2023-06-26T07:44:41;6.60;;;5.80;;
22935;SDS011;11633;42.716;23.312;2023-06-26T07:47:06;7.00;;;6.35;;
22935;SDS011;11633;42.716;23.312;2023-06-26T07:49:32;5.70;;;5.20;;
22935;SDS011;11633;42.716;23.312;2023-06-26T07:51:57;5.87;;;4.63;;
22935;SDS011;11633;42.716;23.312;2023-06-26T07:54:22;6.32;;;5.72;;
22935;SDS011;11633;42.716;23.312;2023-06-26T07:56:57;6.53;;;5.93;;
22935;SDS011;11633;42.716;23.312;2023-06-26T07:59:24;5.45;;;5.05;;
22935;SDS011;11633;42.716;23.312;2023-06-26T08:01:50;5.78;;;5.28;;
22935;SDS011;11633;42.716;23.312;2023-06-26T08:04:15;7.00;;;6.35;;
22935;SDS011;11633;42.716;23.312;2023-06-26T08:06:41;6.88;;;6.28;;
22935;SDS011;11633;42.716;23.312;2023-06-26T08:09:06;7.45;;;6.75;;
22935;SDS011;11633;42.716;23.312;2023-06-26T08:11:33;6.13;;;5.63;;
22935;SDS011;11633;42.716;23.312;2023-06-26T08:13:58;6.80;;;6.05;;
22935;SDS011;11633;42.716;23.312;2023-06-26T08:16:23;6.70;;;5.82;;
22935;SDS011;11633;42.716;23.312;2023-06-26T08:18:48;7.20;;;6.03;;
22935;SDS011;11633;42.716;23.312;2023-06-26T08:21:14;7.28;;;6.57;;
22935;SDS011;11633;42.716;23.312;2023-06-26T08:23:39;7.53;;;6.68;;
22935;SDS011;11633;42.716;23.312;2023-06-26T08:26:04;7.80;;;7.10;;
22935;SDS011;11633;42.716;23.312;2023-06-26T08:28:29;8.38;;;5.75;;
22935;SDS011;11633;42.716;23.312;2023-06-26T08:30:55;6.35;;;5.75;;
22935;SDS011;11633;42.716;23.312;2023-06-26T08:33:20;7.05;;;6.10;;
22935;SDS011;11633;42.716;23.312;2023-06-26T08:35:45;6.72;;;5.47;;
22935;SDS011;11633;42.716;23.312;2023-06-26T08:38:10;8.98;;;6.10;;
22935;SDS011;11633;42.716;23.312;2023-06-26T08:40:36;6.57;;;5.88;;
22935;SDS011;11633;42.716;23.312;2023-06-26T08:43:01;6.03;;;5.50;;
22935;SDS011;11633;42.716;23.312;2023-06-26T08:45:28;8.55;;;6.05;;
22935;SDS011;11633;42.716;23.312;2023-06-26T08:47:53;5.85;;;4.80;;
22935;SDS011;11633;42.716;23.312;2023-06-26T08:50:20;6.95;;;5.70;;
22935;SDS011;11633;42.716;23.312;2023-06-26T08:52:56;7.50;;;5.75;;
22935;SDS011;11633;42.716;23.312;2023-06-26T08:55:23;6.63;;;5.93;;
22935;SDS011;11633;42.716;23.312;2023-06-26T08:57:49;6.43;;;5.82;;
22935;SDS011;11633;42.716;23.312;2023-06-26T09:00:18;5.70;;;5.03;;
22935;SDS011;11633;42.716;23.312;2023-06-26T09:02:44;7.13;;;5.20;;
22935;SDS011;11633;42.716;23.312;2023-06-26T09:05:09;6.32;;;5.43;;
22935;SDS011;11633;42.716;23.312;2023-06-26T09:07:34;5.32;;;4.82;;
22935;SDS011;11633;42.716;23.312;2023-06-26T09:09:59;5.38;;;4.97;;
22935;SDS011;11633;42.716;23.312;2023-06-26T09:12:26;6.45;;;5.20;;
22935;SDS011;11633;42.716;23.312;2023-06-26T09:14:51;5.82;;;4.50;;
22935;SDS011;11633;42.716;23.312;2023-06-26T09:17:17;5.35;;;4.80;;
22935;SDS011;11633;42.716;23.312;2023-06-26T09:19:45;6.38;;;4.63;;
22935;SDS011;11633;42.716;23.312;2023-06-26T09:22:11;5.05;;;4.55;;
22935;SDS011;11633;42.716;23.312;2023-06-26T09:24:36;4.70;;;4.30;;
22935;SDS011;11633;42.716;23.312;2023-06-26T09:27:01;5.45;;;4.95;;
22935;SDS011;11633;42.716;23.312;2023-06-26T09:29:27;4.63;;;4.13;;
22935;SDS011;11633;42.716;23.312;2023-06-26T09:31:53;5.13;;;4.57;;
22935;SDS011;11633;42.716;23.312;2023-06-26T09:34:21;5.88;;;4.90;;
22935;SDS011;11633;42.716;23.312;2023-06-26T09:36:46;5.28;;;4.60;;
22935;SDS011;11633;42.716;23.312;2023-06-26T09:39:12;5.78;;;4.22;;
22935;SDS011;11633;42.716;23.312;2023-06-26T09:41:43;5.30;;;4.07;;
22935;SDS011;11633;42.716;23.312;2023-06-26T09:44:10;5.00;;;4.50;;
22935;SDS011;11633;42.716;23.312;2023-06-26T09:46:35;5.10;;;4.68;;
22935;SDS011;11633;42.716;23.312;2023-06-26T09:49:05;7.10;;;4.10;;
22935;SDS011;11633;42.716;23.312;2023-06-26T09:51:31;4.25;;;3.85;;
22935;SDS011;11633;42.716;23.312;2023-06-26T09:53:57;5.32;;;3.55;;
22935;SDS011;11633;42.716;23.312;2023-06-26T09:56:22;5.57;;;5.00;;
22935;SDS011;11633;42.716;23.312;2023-06-26T09:58:49;5.80;;;4.80;;
22935;SDS011;11633;42.716;23.312;2023-06-26T10:01:14;6.68;;;5.28;;
22935;SDS011;11633;42.716;23.312;2023-06-26T10:03:39;4.70;;;4.30;;
22935;SDS011;11633;42.716;23.312;2023-06-26T10:06:05;6.43;;;5.20;;
22935;SDS011;11633;42.716;23.312;2023-06-26T10:08:31;6.60;;;5.90;;
22935;SDS011;11633;42.716;23.312;2023-06-26T10:11:01;7.57;;;5.07;;
22935;SDS011;11633;42.716;23.312;2023-06-26T10:13:34;5.93;;;5.32;;
22935;SDS011;11633;42.716;23.312;2023-06-26T10:16:03;6.20;;;4.60;;
22935;SDS011;11633;42.716;23.312;2023-06-26T10:18:31;6.50;;;5.20;;
22935;SDS011;11633;42.716;23.312;2023-06-26T10:21:03;6.68;;;5.18;;
22935;SDS011;11633;42.716;23.312;2023-06-26T10:23:30;4.80;;;4.05;;
22935;SDS011;11633;42.716;23.312;2023-06-26T10:26:14;5.50;;;5.00;;
22935;SDS011;11633;42.716;23.312;2023-06-26T10:28:39;5.85;;;4.30;;
22935;SDS011;11633;42.716;23.312;2023-06-26T10:34:01;7.57;;;5.13;;
22935;SDS011;11633;42.716;23.312;2023-06-26T10:36:29;5.20;;;4.60;;
22935;SDS011;11633;42.716;23.312;2023-06-26T10:39:07;5.75;;;4.97;;
22935;SDS011;11633;42.716;23.312;2023-06-26T10:42:20;6.10;;;5.47;;
22935;SDS011;11633;42.716;23.312;2023-06-26T10:44:47;6.35;;;4.75;;
22935;SDS011;11633;42.716;23.312;2023-06-26T10:47:33;5.88;;;5.28;;
22935;SDS011;11633;42.716;23.312;2023-06-26T10:52:44;6.78;;;5.18;;
22935;SDS011;11633;42.716;23.312;2023-06-26T10:55:09;5.15;;;4.63;;
22935;SDS011;11633;42.716;23.312;2023-06-26T10:57:35;5.32;;;4.82;;
22935;SDS011;11633;42.716;23.312;2023-06-26T11:00:11;5.22;;;4.70;;
22935;SDS011;11633;42.716;23.312;2023-06-26T11:02:52;6.72;;;4.32;;
22935;SDS011;11633;42.716;23.312;2023-06-26T11:05:27;4.22;;;3.92;;
22935;SDS011;11633;42.716;23.312;2023-06-26T11:08:09;7.90;;;4.60;;
22935;SDS011;11633;42.716;23.312;2023-06-26T11:10:48;5.50;;;5.00;;
22935;SDS011;11633;42.716;23.312;2023-06-26T11:13:14;7.07;;;5.30;;
22935;SDS011;11633;42.716;23.312;2023-06-26T11:15:39;5.75;;;5.15;;
22935;SDS011;11633;42.716;23.312;2023-06-26T11:18:07;6.85;;;5.38;;
22935;SDS011;11633;42.716;23.312;2023-06-26T11:20:32;5.97;;;5.38;;
22935;SDS011;11633;42.716;23.312;2023-06-26T11:22:58;5.13;;;4.63;;
22935;SDS011;11633;42.716;23.312;2023-06-26T11:25:23;6.28;;;5.00;;
22935;SDS011;11633;42.716;23.312;2023-06-26T11:27:49;6.13;;;4.32;;
22935;SDS011;11633;42.716;23.312;2023-06-26T11:30:24;5.40;;;4.53;;
22935;SDS011;11633;42.716;23.312;2023-06-26T11:32:49;4.47;;;4.07;;
22935;SDS011;11633;42.716;23.312;2023-06-26T11:35:24;4.75;;;4.13;;
22935;SDS011;11633;42.716;23.312;2023-06-26T11:37:59;6.80;;;4.28;;
22935;SDS011;11633;42.716;23.312;2023-06-26T11:40:25;4.57;;;4.18;;
22935;SDS011;11633;42.716;23.312;2023-06-26T11:42:54;4.75;;;4.30;;
22935;SDS011;11633;42.716;23.312;2023-06-26T11:45:19;5.20;;;4.68;;
22935;SDS011;11633;42.716;23.312;2023-06-26T11:47:45;5.57;;;4.68;;
22935;SDS011;11633;42.716;23.312;2023-06-26T11:50:16;4.93;;;4.25;;
22935;SDS011;11633;42.716;23.312;2023-06-26T11:52:42;8.00;;;5.28;;
22935;SDS011;11633;42.716;23.312;2023-06-26T11:55:08;7.28;;;4.90;;
22935;SDS011;11633;42.716;23.312;2023-06-26T11:57:33;6.22;;;5.47;;
22935;SDS011;11633;42.716;23.312;2023-06-26T12:00:09;5.43;;;4.93;;
22935;SDS011;11633;42.716;23.312;2023-06-26T12:02:35;6.43;;;5.55;;
22935;SDS011;11633;42.716;23.312;2023-06-26T12:05:00;5.82;;;5.22;;
22935;SDS011;11633;42.716;23.312;2023-06-26T12:07:26;5.50;;;5.00;;
22935;SDS011;11633;42.716;23.312;2023-06-26T12:09:51;5.30;;;4.80;;
22935;SDS011;11633;42.716;23.312;2023-06-26T12:12:17;6.60;;;5.07;;
22935;SDS011;11633;42.716;23.312;2023-06-26T12:14:43;5.50;;;5.00;;
22935;SDS011;11633;42.716;23.312;2023-06-26T12:17:09;6.10;;;5.38;;
22935;SDS011;11633;42.716;23.312;2023-06-26T12:19:36;5.70;;;5.03;;
22935;SDS011;11633;42.716;23.312;2023-06-26T12:22:05;5.38;;;4.50;;
22935;SDS011;11633;42.716;23.312;2023-06-26T12:24:31;5.05;;;4.55;;
22935;SDS011;11633;42.716;23.312;2023-06-26T12:26:56;5.32;;;4.60;;
22935;SDS011;11633;42.716;23.312;2023-06-26T12:29:28;5.90;;;5.00;;
22935;SDS011;11633;42.716;23.312;2023-06-26T12:31:54;6.20;;;4.68;;
22935;SDS011;11633;42.716;23.312;2023-06-26T12:34:19;6.20;;;4.97;;
22935;SDS011;11633;42.716;23.312;2023-06-26T12:36:46;7.25;;;4.88;;
22935;SDS011;11633;42.716;23.312;2023-06-26T12:39:14;6.07;;;5.13;;
22935;SDS011;11633;42.716;23.312;2023-06-26T12:41:53;5.15;;;4.65;;
22935;SDS011;11633;42.716;23.312;2023-06-26T12:44:19;6.63;;;5.20;;
22935;SDS011;11633;42.716;23.312;2023-06-26T12:46:45;6.13;;;5.53;;
22935;SDS011;11633;42.716;23.312;2023-06-26T12:49:12;6.45;;;5.78;;
22935;SDS011;11633;42.716;23.312;2023-06-26T12:51:37;7.93;;;5.80;;
22935;SDS011;11633;42.716;23.312;2023-06-26T12:54:03;6.28;;;5.68;;
22935;SDS011;11633;42.716;23.312;2023-06-26T12:56:28;6.00;;;5.40;;
22935;SDS011;11633;42.716;23.312;2023-06-26T12:58:53;5.80;;;5.22;;
22935;SDS011;11633;42.716;23.312;2023-06-26T13:01:18;6.55;;;5.18;;
22935;SDS011;11633;42.716;23.312;2023-06-26T13:03:45;5.65;;;4.95;;
22935;SDS011;11633;42.716;23.312;2023-06-26T13:06:10;6.85;;;4.85;;
22935;SDS011;11633;42.716;23.312;2023-06-26T13:08:35;4.97;;;4.47;;
22935;SDS011;11633;42.716;23.312;2023-06-26T13:11:02;5.88;;;4.53;;
22935;SDS011;11633;42.716;23.312;2023-06-26T13:13:27;5.78;;;4.65;;
22935;SDS011;11633;42.716;23.312;2023-06-26T13:15:52;6.28;;;5.40;;
22935;SDS011;11633;42.716;23.312;2023-06-26T13:18:18;8.65;;;4.47;;
22935;SDS011;11633;42.716;23.312;2023-06-26T13:20:43;5.07;;;4.57;;
22935;SDS011;11633;42.716;23.312;2023-06-26T13:23:08;5.80;;;5.30;;
22935;SDS011;11633;42.716;23.312;2023-06-26T13:25:33;7.40;;;4.55;;
22935;SDS011;11633;42.716;23.312;2023-06-26T13:27:59;6.53;;;5.10;;
22935;SDS011;11633;42.716;23.312;2023-06-26T13:30:24;6.00;;;5.10;;
22935;SDS011;11633;42.716;23.312;2023-06-26T13:32:49;6.57;;;4.70;;
22935;SDS011;11633;42.716;23.312;2023-06-26T13:35:15;4.50;;;4.07;;
22935;SDS011;11633;42.716;23.312;2023-06-26T13:37:40;5.88;;;5.05;;
22935;SDS011;11633;42.716;23.312;2023-06-26T13:40:06;5.18;;;4.68;;
22935;SDS011;11633;42.716;23.312;2023-06-26T13:42:32;6.72;;;4.88;;
22935;SDS011;11633;42.716;23.312;2023-06-26T13:44:57;7.60;;;5.10;;
22935;SDS011;11633;42.716;23.312;2023-06-26T13:47:22;4.53;;;4.05;;
22935;SDS011;11633;42.716;23.312;2023-06-26T13:49:48;5.63;;;4.55;;
22935;SDS011;11633;42.716;23.312;2023-06-26T13:52:13;5.28;;;4.78;;
22935;SDS011;11633;42.716;23.312;2023-06-26T13:54:38;4.93;;;4.53;;
22935;SDS011;11633;42.716;23.312;2023-06-26T13:57:07;5.00;;;4.30;;
22935;SDS011;11633;42.716;23.312;2023-06-26T13:59:33;5.22;;;4.72;;
22935;SDS011;11633;42.716;23.312;2023-06-26T14:01:58;6.35;;;4.65;;
22935;SDS011;11633;42.716;23.312;2023-06-26T14:04:24;6.13;;;4.55;;
22935;SDS011;11633;42.716;23.312;2023-06-26T14:06:49;5.25;;;4.75;;
22935;SDS011;11633;42.716;23.312;2023-06-26T14:09:14;7.57;;;4.85;;
22935;SDS011;11633;42.716;23.312;2023-06-26T14:11:40;6.03;;;5.28;;
22935;SDS011;11633;42.716;23.312;2023-06-26T14:14:05;5.10;;;4.60;;
22935;SDS011;11633;42.716;23.312;2023-06-26T14:16:30;5.53;;;4.97;;
22935;SDS011;11633;42.716;23.312;2023-06-26T14:18:56;5.68;;;4.72;;
22935;SDS011;11633;42.716;23.312;2023-06-26T14:21:22;6.43;;;5.00;;
22935;SDS011;11633;42.716;23.312;2023-06-26T14:23:47;8.50;;;4.82;;
22935;SDS011;11633;42.716;23.312;2023-06-26T14:26:12;7.15;;;4.60;;
22935;SDS011;11633;42.716;23.312;2023-06-26T14:28:38;7.45;;;5.07;;
22935;SDS011;11633;42.716;23.312;2023-06-26T14:31:03;6.30;;;5.70;;